sensor_id;sensor_type;location;lat;lon;timestamp;pressure;altitude;pressure_sealevel;temperature
19102;BMP280;9683;49.028;12.064;2023-04-24T00:02:19;96281.81;;;16.40
19102;BMP280;9683;49.028;12.064;2023-04-24T00:04:47;96279.91;;;16.41
19102;BMP280;9683;49.028;12.064;2023-04-24T00:07:14;96279.63;;;16.42
19102;BMP280;9683;49.028;12.064;2023-04-24T00:09:43;96279.91;;;16.41
19102;BMP280;9683;49.028;12.064;2023-04-24T00:12:09;96273.50;;;16.37
19102;BMP280;9683;49.028;12.064;2023-04-24T00:14:36;96268.19;;;16.32
19102;BMP280;9683;49.028;12.064;2023-04-24T00:17:03;96267.13;;;16.33
19102;BMP280;9683;49.028;12.064;2023-04-24T00:19:29;96265.78;;;16.30
19102;BMP280;9683;49.028;12.064;2023-04-24T00:21:56;96254.53;;;16.28
19102;BMP280;9683;49.028;12.064;2023-04-24T00:24:22;96257.50;;;16.27
19102;BMP280;9683;49.028;12.064;2023-04-24T00:26:50;96251.31;;;16.26
19102;BMP280;9683;49.028;12.064;2023-04-24T00:29:17;96258.06;;;16.24
19102;BMP280;9683;49.028;12.064;2023-04-24T00:31:43;96254.59;;;16.23
19102;BMP280;9683;49.028;12.064;2023-04-24T00:34:10;96253.44;;;16.29
19102;BMP280;9683;49.028;12.064;2023-04-24T00:36:37;96248.59;;;16.31
19102;BMP280;9683;49.028;12.064;2023-04-24T00:39:04;96250.75;;;16.29
19102;BMP280;9683;49.028;12.064;2023-04-24T00:41:31;96255.63;;;16.27
19102;BMP280;9683;49.028;12.064;2023-04-24T00:43:59;96263.66;;;16.27
19102;BMP280;9683;49.028;12.064;2023-04-24T00:46:26;96257.50;;;16.27
19102;BMP280;9683;49.028;12.064;2023-04-24T00:48:52;96260.69;;;16.29
19102;BMP280;9683;49.028;12.064;2023-04-24T00:51:19;96261.47;;;16.29
19102;BMP280;9683;49.028;12.064;2023-04-24T00:53:46;96262.28;;;16.30
19102;BMP280;9683;49.028;12.064;2023-04-24T00:56:13;96269.00;;;16.32
19102;BMP280;9683;49.028;12.064;2023-04-24T00:58:39;96249.44;;;16.27
19102;BMP280;9683;49.028;12.064;2023-04-24T01:01:09;96243.53;;;16.25
19102;BMP280;9683;49.028;12.064;2023-04-24T01:03:37;96247.56;;;16.27
19102;BMP280;9683;49.028;12.064;2023-04-24T01:06:05;96249.72;;;16.25
19102;BMP280;9683;49.028;12.064;2023-04-24T01:08:32;96253.25;;;16.21
19102;BMP280;9683;49.028;12.064;2023-04-24T01:11:03;96209.47;;;15.96
19102;BMP280;9683;49.028;12.064;2023-04-24T01:13:31;96254.00;;;16.26
19102;BMP280;9683;49.028;12.064;2023-04-24T01:15:58;96245.44;;;16.24
19102;BMP280;9683;49.028;12.064;2023-04-24T01:18:27;96252.69;;;16.24
19102;BMP280;9683;49.028;12.064;2023-04-24T01:20:57;96252.97;;;16.22
19102;BMP280;9683;49.028;12.064;2023-04-24T01:23:26;96255.16;;;16.20
19102;BMP280;9683;49.028;12.064;2023-04-24T01:25:52;96251.66;;;16.20
19102;BMP280;9683;49.028;12.064;2023-04-24T01:28:19;96251.19;;;16.13
19102;BMP280;9683;49.028;12.064;2023-04-24T01:30:46;96253.56;;;16.19
19102;BMP280;9683;49.028;12.064;2023-04-24T01:33:13;96251.66;;;16.20
19102;BMP280;9683;49.028;12.064;2023-04-24T01:35:39;96255.94;;;16.21
19102;BMP280;9683;49.028;12.064;2023-04-24T01:38:06;96236.22;;;16.07
19102;BMP280;9683;49.028;12.064;2023-04-24T01:40:37;96259.94;;;16.23
19102;BMP280;9683;49.028;12.064;2023-04-24T01:43:03;96258.06;;;16.24
19102;BMP280;9683;49.028;12.064;2023-04-24T01:45:30;96256.47;;;16.23
19102;BMP280;9683;49.028;12.064;2023-04-24T01:47:57;96258.56;;;16.26
19102;BMP280;9683;49.028;12.064;2023-04-24T01:50:24;96255.09;;;16.25
19102;BMP280;9683;49.028;12.064;2023-04-24T01:52:51;96248.13;;;16.24
19102;BMP280;9683;49.028;12.064;2023-04-24T01:55:18;96247.59;;;16.22
19102;BMP280;9683;49.028;12.064;2023-04-24T01:57:46;96246.31;;;16.20
19102;BMP280;9683;49.028;12.064;2023-04-24T02:00:13;96243.88;;;16.18
19102;BMP280;9683;49.028;12.064;2023-04-24T02:02:40;96249.53;;;16.17
19102;BMP280;9683;49.028;12.064;2023-04-24T02:05:08;96239.16;;;16.10
19102;BMP280;9683;49.028;12.064;2023-04-24T02:07:35;96246.91;;;16.12
19102;BMP280;9683;49.028;12.064;2023-04-24T02:10:02;96240.22;;;16.09
19102;BMP280;9683;49.028;12.064;2023-04-24T02:12:29;96244.56;;;16.05
19102;BMP280;9683;49.028;12.064;2023-04-24T02:14:57;96247.50;;;16.03
19102;BMP280;9683;49.028;12.064;2023-04-24T02:17:26;96237.06;;;16.02
19102;BMP280;9683;49.028;12.064;2023-04-24T02:19:53;96233.06;;;15.99
19102;BMP280;9683;49.028;12.064;2023-04-24T02:22:20;96236.78;;;16.03
19102;BMP280;9683;49.028;12.064;2023-04-24T02:24:47;96204.47;;;15.90
19102;BMP280;9683;49.028;12.064;2023-04-24T02:27:14;96226.56;;;16.05
19102;BMP280;9683;49.028;12.064;2023-04-24T02:29:40;96210.28;;;15.97
19102;BMP280;9683;49.028;12.064;2023-04-24T02:32:08;96223.63;;;16.07
19102;BMP280;9683;49.028;12.064;2023-04-24T02:34:37;96213.72;;;16.02
19102;BMP280;9683;49.028;12.064;2023-04-24T02:37:03;96217.72;;;16.05
19102;BMP280;9683;49.028;12.064;2023-04-24T02:39:30;96213.41;;;16.04
19102;BMP280;9683;49.028;12.064;2023-04-24T02:41:57;96206.47;;;16.03
19102;BMP280;9683;49.028;12.064;2023-04-24T02:44:23;96209.94;;;16.03
19102;BMP280;9683;49.028;12.064;2023-04-24T02:46:50;96213.69;;;16.08
19102;BMP280;9683;49.028;12.064;2023-04-24T02:49:18;96204.81;;;16.07
19102;BMP280;9683;49.028;12.064;2023-04-24T02:51:45;96204.81;;;16.07
19102;BMP280;9683;49.028;12.064;2023-04-24T02:54:11;96206.41;;;16.08
19102;BMP280;9683;49.028;12.064;2023-04-24T02:56:38;96204.81;;;16.07
19102;BMP280;9683;49.028;12.064;2023-04-24T02:59:05;96205.09;;;16.05
19102;BMP280;9683;49.028;12.064;2023-04-24T03:01:31;96199.72;;;16.05
19102;BMP280;9683;49.028;12.064;2023-04-24T03:03:58;96198.13;;;16.04
19102;BMP280;9683;49.028;12.064;2023-04-24T03:06:26;96200.00;;;16.04
19102;BMP280;9683;49.028;12.064;2023-04-24T03:08:53;96193.06;;;16.03
19102;BMP280;9683;49.028;12.064;2023-04-24T03:11:20;96195.75;;;16.03
19102;BMP280;9683;49.028;12.064;2023-04-24T03:13:46;96186.94;;;15.97
19102;BMP280;9683;49.028;12.064;2023-04-24T03:16:13;96202.41;;;16.05
19102;BMP280;9683;49.028;12.064;2023-04-24T03:18:40;96197.03;;;16.05
19102;BMP280;9683;49.028;12.064;2023-04-24T03:21:06;96203.22;;;16.06
19102;BMP280;9683;49.028;12.064;2023-04-24T03:23:34;96201.88;;;16.03
19102;BMP280;9683;49.028;12.064;2023-04-24T03:26:01;96199.19;;;16.03
19102;BMP280;9683;49.028;12.064;2023-04-24T03:28:28;96198.69;;;16.01
19102;BMP280;9683;49.028;12.064;2023-04-24T03:30:54;96198.97;;;16.00
19102;BMP280;9683;49.028;12.064;2023-04-24T03:33:21;96203.03;;;15.97
19102;BMP280;9683;49.028;12.064;2023-04-24T03:35:47;96206.56;;;15.93
19102;BMP280;9683;49.028;12.064;2023-04-24T03:38:14;96207.94;;;15.90
19102;BMP280;9683;49.028;12.064;2023-04-24T03:40:42;96206.03;;;15.91
19102;BMP280;9683;49.028;12.064;2023-04-24T03:43:09;96212.78;;;15.88
19102;BMP280;9683;49.028;12.064;2023-04-24T03:45:35;96220.03;;;15.88
19102;BMP280;9683;49.028;12.064;2023-04-24T03:48:02;96218.72;;;15.85
19102;BMP280;9683;49.028;12.064;2023-04-24T03:50:29;96212.59;;;15.80
19102;BMP280;9683;49.028;12.064;2023-04-24T03:52:55;96223.31;;;15.80
19102;BMP280;9683;49.028;12.064;2023-04-24T03:55:22;96217.44;;;15.78
19102;BMP280;9683;49.028;12.064;2023-04-24T03:57:50;96218.00;;;15.75
19102;BMP280;9683;49.028;12.064;2023-04-24T04:00:16;96218.84;;;15.70
19102;BMP280;9683;49.028;12.064;2023-04-24T04:02:43;96219.69;;;15.66
19102;BMP280;9683;49.028;12.064;2023-04-24T04:05:10;96224.00;;;15.62
19102;BMP280;9683;49.028;12.064;2023-04-24T04:07:37;96219.19;;;15.58
19102;BMP280;9683;49.028;12.064;2023-04-24T04:10:04;96221.09;;;15.58
19102;BMP280;9683;49.028;12.064;2023-04-24T04:12:32;96219.50;;;15.57
19102;BMP280;9683;49.028;12.064;2023-04-24T04:15:00;96214.91;;;15.57
19102;BMP280;9683;49.028;12.064;2023-04-24T04:17:27;96227.28;;;15.53
19102;BMP280;9683;49.028;12.064;2023-04-24T04:19:53;96218.47;;;15.53
19102;BMP280;9683;49.028;12.064;2023-04-24T04:22:20;96211.75;;;15.50
19102;BMP280;9683;49.028;12.064;2023-04-24T04:24:46;96215.78;;;15.48
19102;BMP280;9683;49.028;12.064;2023-04-24T04:27:13;96213.97;;;15.38
19102;BMP280;9683;49.028;12.064;2023-04-24T04:29:41;96213.41;;;15.41
19102;BMP280;9683;49.028;12.064;2023-04-24T04:32:10;96213.66;;;15.45
19102;BMP280;9683;49.028;12.064;2023-04-24T04:34:37;96200.59;;;15.33
19102;BMP280;9683;49.028;12.064;2023-04-24T04:37:04;96189.41;;;15.26
19102;BMP280;9683;49.028;12.064;2023-04-24T04:39:31;96220.09;;;15.44
19102;BMP280;9683;49.028;12.064;2023-04-24T04:41:58;96221.19;;;15.43
19102;BMP280;9683;49.028;12.064;2023-04-24T04:44:25;96229.50;;;15.41
19102;BMP280;9683;49.028;12.064;2023-04-24T04:46:53;96225.75;;;15.42
19102;BMP280;9683;49.028;12.064;2023-04-24T04:49:23;96217.47;;;15.39
19102;BMP280;9683;49.028;12.064;2023-04-24T04:51:50;96215.00;;;15.42
19102;BMP280;9683;49.028;12.064;2023-04-24T04:54:17;96218.78;;;15.41
19102;BMP280;9683;49.028;12.064;2023-04-24T04:56:43;96211.03;;;15.40
19102;BMP280;9683;49.028;12.064;2023-04-24T04:59:10;96223.06;;;15.42
19102;BMP280;9683;49.028;12.064;2023-04-24T05:01:37;96213.97;;;15.38
19102;BMP280;9683;49.028;12.064;2023-04-24T05:04:04;96227.38;;;15.38
19102;BMP280;9683;49.028;12.064;2023-04-24T05:06:32;96226.84;;;15.36
19102;BMP280;9683;49.028;12.064;2023-04-24T05:08:59;96215.16;;;15.22
19102;BMP280;9683;49.028;12.064;2023-04-24T05:11:25;96228.53;;;15.27
19102;BMP280;9683;49.028;12.064;2023-04-24T05:13:52;96232.06;;;15.23
19102;BMP280;9683;49.028;12.064;2023-04-24T05:16:19;96234.44;;;15.24
19102;BMP280;9683;49.028;12.064;2023-04-24T05:18:45;96229.91;;;15.20
19102;BMP280;9683;49.028;12.064;2023-04-24T05:21:12;96237.69;;;15.16
19102;BMP280;9683;49.028;12.064;2023-04-24T05:23:40;96244.66;;;15.17
19102;BMP280;9683;49.028;12.064;2023-04-24T05:26:06;96239.91;;;15.09
19102;BMP280;9683;49.028;12.064;2023-04-24T05:28:33;96243.38;;;15.09
19102;BMP280;9683;49.028;12.064;2023-04-24T05:31:01;96249.81;;;15.08
19102;BMP280;9683;49.028;12.064;2023-04-24T05:33:28;96251.19;;;15.06
19102;BMP280;9683;49.028;12.064;2023-04-24T05:35:55;96262.13;;;15.09
19102;BMP280;9683;49.028;12.064;2023-04-24T05:38:22;96252.50;;;15.08
19102;BMP280;9683;49.028;12.064;2023-04-24T05:40:50;96257.84;;;15.08
19102;BMP280;9683;49.028;12.064;2023-04-24T05:43:17;96263.44;;;15.12
19102;BMP280;9683;49.028;12.064;2023-04-24T05:45:44;96262.38;;;15.13
19102;BMP280;9683;49.028;12.064;2023-04-24T05:48:11;96268.28;;;15.15
19102;BMP280;9683;49.028;12.064;2023-04-24T05:50:37;96266.94;;;15.12
19102;BMP280;9683;49.028;12.064;2023-04-24T05:53:04;96267.75;;;15.13
19102;BMP280;9683;49.028;12.064;2023-04-24T05:55:32;96264.00;;;15.14
19102;BMP280;9683;49.028;12.064;2023-04-24T05:58:00;96270.16;;;15.14
19102;BMP280;9683;49.028;12.064;2023-04-24T06:00:27;96272.56;;;15.11
19102;BMP280;9683;49.028;12.064;2023-04-24T06:02:54;96264.00;;;15.09
19102;BMP280;9683;49.028;12.064;2023-04-24T06:05:20;96274.50;;;15.05
19102;BMP280;9683;49.028;12.064;2023-04-24T06:07:47;96261.91;;;15.06
19102;BMP280;9683;49.028;12.064;2023-04-24T06:10:14;96246.69;;;14.91
19102;BMP280;9683;49.028;12.064;2023-04-24T06:12:41;96269.38;;;15.04
19102;BMP280;9683;49.028;12.064;2023-04-24T06:15:09;96276.09;;;15.06
19102;BMP280;9683;49.028;12.064;2023-04-24T06:17:37;96277.97;;;15.06
19102;BMP280;9683;49.028;12.064;2023-04-24T06:20:04;96272.38;;;15.02
19102;BMP280;9683;49.028;12.064;2023-04-24T06:22:31;96273.69;;;15.05
19102;BMP280;9683;49.028;12.064;2023-04-24T06:24:59;96277.97;;;15.06
19102;BMP280;9683;49.028;12.064;2023-04-24T06:27:25;96276.91;;;15.02
19102;BMP280;9683;49.028;12.064;2023-04-24T06:29:52;96278.00;;;15.01
19102;BMP280;9683;49.028;12.064;2023-04-24T06:32:22;96275.06;;;14.97
19102;BMP280;9683;49.028;12.064;2023-04-24T06:34:49;96286.31;;;14.94
19102;BMP280;9683;49.028;12.064;2023-04-24T06:37:15;96266.50;;;14.90
19102;BMP280;9683;49.028;12.064;2023-04-24T06:39:42;96272.66;;;14.96
19102;BMP280;9683;49.028;12.064;2023-04-24T06:42:09;96278.53;;;14.98
19102;BMP280;9683;49.028;12.064;2023-04-24T06:44:35;96283.84;;;15.03
19102;BMP280;9683;49.028;12.064;2023-04-24T06:47:06;96272.63;;;15.06
19102;BMP280;9683;49.028;12.064;2023-04-24T06:49:34;96282.19;;;15.17
19102;BMP280;9683;49.028;12.064;2023-04-24T06:52:01;96275.47;;;15.20
19102;BMP280;9683;49.028;12.064;2023-04-24T06:54:28;96270.09;;;15.25
19102;BMP280;9683;49.028;12.064;2023-04-24T06:56:55;96267.13;;;15.26
19102;BMP280;9683;49.028;12.064;2023-04-24T06:59:22;96262.38;;;15.13
19102;BMP280;9683;49.028;12.064;2023-04-24T07:01:49;96264.00;;;15.09
19102;BMP280;9683;49.028;12.064;2023-04-24T07:04:16;96270.66;;;15.17
19102;BMP280;9683;49.028;12.064;2023-04-24T07:06:44;96277.63;;;15.18
19102;BMP280;9683;49.028;12.064;2023-04-24T07:09:12;96278.19;;;15.14
19102;BMP280;9683;49.028;12.064;2023-04-24T07:11:41;96279.25;;;15.13
19102;BMP280;9683;49.028;12.064;2023-04-24T07:14:07;96280.06;;;15.14
19102;BMP280;9683;49.028;12.064;2023-04-24T07:16:34;96273.38;;;15.11
19102;BMP280;9683;49.028;12.064;2023-04-24T07:19:01;96273.38;;;15.11
19102;BMP280;9683;49.028;12.064;2023-04-24T07:21:27;96283.00;;;15.12
19102;BMP280;9683;49.028;12.064;2023-04-24T07:23:55;96276.81;;;15.17
19102;BMP280;9683;49.028;12.064;2023-04-24T07:26:22;96285.69;;;15.18
19102;BMP280;9683;49.028;12.064;2023-04-24T07:28:48;96261.84;;;15.11
19102;BMP280;9683;49.028;12.064;2023-04-24T07:31:15;96275.22;;;15.16
19102;BMP280;9683;49.028;12.064;2023-04-24T07:33:42;96277.63;;;15.18
19102;BMP280;9683;49.028;12.064;2023-04-24T07:36:08;96281.94;;;15.19
19102;BMP280;9683;49.028;12.064;2023-04-24T07:38:40;96277.63;;;15.18
19102;BMP280;9683;49.028;12.064;2023-04-24T07:41:08;96280.31;;;15.18
19102;BMP280;9683;49.028;12.064;2023-04-24T07:43:35;96290.50;;;15.15
19102;BMP280;9683;49.028;12.064;2023-04-24T07:46:01;96289.16;;;15.18
19102;BMP280;9683;49.028;12.064;2023-04-24T07:48:28;96278.44;;;15.18
19102;BMP280;9683;49.028;12.064;2023-04-24T07:50:55;96296.91;;;15.20
19102;BMP280;9683;49.028;12.064;2023-04-24T07:53:21;96289.91;;;15.24
19102;BMP280;9683;49.028;12.064;2023-04-24T07:55:48;96276.00;;;15.22
19102;BMP280;9683;49.028;12.064;2023-04-24T07:58:16;96305.16;;;15.33
19102;BMP280;9683;49.028;12.064;2023-04-24T08:00:43;96305.16;;;15.33
19102;BMP280;9683;49.028;12.064;2023-04-24T08:03:10;96290.13;;;15.32
19102;BMP280;9683;49.028;12.064;2023-04-24T08:05:37;96303.75;;;15.41
19102;BMP280;9683;49.028;12.064;2023-04-24T08:08:04;96296.28;;;15.38
19102;BMP280;9683;49.028;12.064;2023-04-24T08:10:31;96290.66;;;15.39
19102;BMP280;9683;49.028;12.064;2023-04-24T08:12:57;96290.91;;;15.38
19102;BMP280;9683;49.028;12.064;2023-04-24T08:15:26;96286.03;;;15.45
19102;BMP280;9683;49.028;12.064;2023-04-24T08:17:53;96287.38;;;15.47
19102;BMP280;9683;49.028;12.064;2023-04-24T08:20:20;96280.41;;;15.51
19102;BMP280;9683;49.028;12.064;2023-04-24T08:22:46;96287.31;;;15.57
19102;BMP280;9683;49.028;12.064;2023-04-24T08:25:14;96278.00;;;15.50
19102;BMP280;9683;49.028;12.064;2023-04-24T08:27:41;96296.91;;;15.69
19102;BMP280;9683;49.028;12.064;2023-04-24T08:30:08;96356.50;;;15.61
19102;BMP280;9683;49.028;12.064;2023-04-24T08:32:37;96324.97;;;15.32
19102;BMP280;9683;49.028;12.064;2023-04-24T08:35:04;96332.66;;;14.95
19102;BMP280;9683;49.028;12.064;2023-04-24T08:37:31;96329.00;;;14.71
19102;BMP280;9683;49.028;12.064;2023-04-24T08:39:57;96323.69;;;14.55
19102;BMP280;9683;49.028;12.064;2023-04-24T08:42:24;96304.97;;;14.25
19102;BMP280;9683;49.028;12.064;2023-04-24T08:44:52;96341.88;;;14.28
19102;BMP280;9683;49.028;12.064;2023-04-24T08:47:20;96338.44;;;14.17
19102;BMP280;9683;49.028;12.064;2023-04-24T08:49:49;96346.44;;;14.12
19102;BMP280;9683;49.028;12.064;2023-04-24T08:52:16;96351.28;;;14.05
19102;BMP280;9683;49.028;12.064;2023-04-24T08:54:46;96333.88;;;14.03
19102;BMP280;9683;49.028;12.064;2023-04-24T08:57:14;96346.69;;;14.06
19102;BMP280;9683;49.028;12.064;2023-04-24T08:59:41;96342.97;;;14.07
19102;BMP280;9683;49.028;12.064;2023-04-24T09:02:10;96348.06;;;14.13
19102;BMP280;9683;49.028;12.064;2023-04-24T09:04:38;96350.19;;;14.16
19102;BMP280;9683;49.028;12.064;2023-04-24T09:07:06;96345.09;;;14.25
19102;BMP280;9683;49.028;12.064;2023-04-24T09:09:34;96343.75;;;14.28
19102;BMP280;9683;49.028;12.064;2023-04-24T09:12:02;96341.63;;;14.35
19102;BMP280;9683;49.028;12.064;2023-04-24T09:14:29;96339.75;;;14.35
19102;BMP280;9683;49.028;12.064;2023-04-24T09:16:57;96340.56;;;14.41
19102;BMP280;9683;49.028;12.064;2023-04-24T09:19:24;96338.16;;;14.44
19102;BMP280;9683;49.028;12.064;2023-04-24T09:21:52;96337.06;;;14.50
19102;BMP280;9683;49.028;12.064;2023-04-24T09:24:21;96340.00;;;14.54
19102;BMP280;9683;49.028;12.064;2023-04-24T09:26:49;96331.16;;;14.58
19102;BMP280;9683;49.028;12.064;2023-04-24T09:29:22;96344.81;;;14.62
19102;BMP280;9683;49.028;12.064;2023-04-24T09:31:49;96324.19;;;14.67
19102;BMP280;9683;49.028;12.064;2023-04-24T09:34:21;96323.38;;;14.72
19102;BMP280;9683;49.028;12.064;2023-04-24T09:36:47;96323.63;;;14.76
19102;BMP280;9683;49.028;12.064;2023-04-24T09:39:15;96345.03;;;14.81
19102;BMP280;9683;49.028;12.064;2023-04-24T09:41:49;96340.50;;;14.76
19102;BMP280;9683;49.028;12.064;2023-04-24T09:44:17;96357.88;;;14.79
19102;BMP280;9683;49.028;12.064;2023-04-24T09:46:49;96362.16;;;14.85
19102;BMP280;9683;49.028;12.064;2023-04-24T09:49:21;96377.44;;;14.84
19102;BMP280;9683;49.028;12.064;2023-04-24T09:51:48;96378.75;;;14.87
19102;BMP280;9683;49.028;12.064;2023-04-24T09:54:16;96362.94;;;14.90
19102;BMP280;9683;49.028;12.064;2023-04-24T09:56:44;96343.44;;;14.80
19102;BMP280;9683;49.028;12.064;2023-04-24T09:59:13;96359.44;;;14.95
19102;BMP280;9683;49.028;12.064;2023-04-24T10:01:40;96360.78;;;14.97
19102;BMP280;9683;49.028;12.064;2023-04-24T10:04:19;96358.63;;;15.04
19102;BMP280;9683;49.028;12.064;2023-04-24T10:06:48;96364.25;;;15.03
19102;BMP280;9683;49.028;12.064;2023-04-24T10:09:15;96375.75;;;15.03
19102;BMP280;9683;49.028;12.064;2023-04-24T10:11:43;96369.09;;;15.01
19102;BMP280;9683;49.028;12.064;2023-04-24T10:14:14;96376.06;;;14.97
19102;BMP280;9683;49.028;12.064;2023-04-24T10:16:42;96378.75;;;14.97
19102;BMP280;9683;49.028;12.064;2023-04-24T10:19:09;96369.97;;;14.81
19102;BMP280;9683;49.028;12.064;2023-04-24T10:21:36;96367.59;;;14.54
19102;BMP280;9683;49.028;12.064;2023-04-24T10:24:07;96391.69;;;14.49
19102;BMP280;9683;49.028;12.064;2023-04-24T10:26:34;96406.66;;;14.40
19102;BMP280;9683;49.028;12.064;2023-04-24T10:29:05;96381.00;;;14.39
19102;BMP280;9683;49.028;12.064;2023-04-24T10:31:36;96381.78;;;14.35
19102;BMP280;9683;49.028;12.064;2023-04-24T10:34:04;96384.19;;;14.36
19102;BMP280;9683;49.028;12.064;2023-04-24T10:36:32;96387.94;;;14.45
19102;BMP280;9683;49.028;12.064;2023-04-24T10:39:02;96382.84;;;14.49
19102;BMP280;9683;49.028;12.064;2023-04-24T10:41:30;96399.72;;;14.59
19102;BMP280;9683;49.028;12.064;2023-04-24T10:44:06;96386.59;;;14.63
19102;BMP280;9683;49.028;12.064;2023-04-24T10:46:35;96380.41;;;14.62
19102;BMP280;9683;49.028;12.064;2023-04-24T10:49:04;96383.09;;;14.67
19102;BMP280;9683;49.028;12.064;2023-04-24T10:51:45;96381.22;;;14.58
19102;BMP280;9683;49.028;12.064;2023-04-24T10:54:22;96369.19;;;14.50
19102;BMP280;9683;49.028;12.064;2023-04-24T10:56:50;96373.19;;;14.58
19102;BMP280;9683;49.028;12.064;2023-04-24T10:59:24;96388.97;;;14.75
19102;BMP280;9683;49.028;12.064;2023-04-24T11:01:54;96375.31;;;14.81
19102;BMP280;9683;49.028;12.064;2023-04-24T11:04:31;96362.97;;;14.85
19102;BMP280;9683;49.028;12.064;2023-04-24T11:06:58;96385.22;;;14.81
19102;BMP280;9683;49.028;12.064;2023-04-24T11:09:26;96358.72;;;14.74
19102;BMP280;9683;49.028;12.064;2023-04-24T11:12:03;96391.34;;;14.91
19102;BMP280;9683;49.028;12.064;2023-04-24T11:15:00;96375.25;;;14.96
19102;BMP280;9683;49.028;12.064;2023-04-24T11:17:29;96376.06;;;14.97
19102;BMP280;9683;49.028;12.064;2023-04-24T11:20:01;96371.75;;;15.01
19102;BMP280;9683;49.028;12.064;2023-04-24T11:22:30;96386.78;;;15.02
19102;BMP280;9683;49.028;12.064;2023-04-24T11:25:00;96390.50;;;15.06
19102;BMP280;9683;49.028;12.064;2023-04-24T11:27:30;96407.09;;;15.08
19102;BMP280;9683;49.028;12.064;2023-04-24T11:30:01;96393.44;;;15.09
19102;BMP280;9683;49.028;12.064;2023-04-24T11:32:33;96410.06;;;15.06
19102;BMP280;9683;49.028;12.064;2023-04-24T11:35:02;96410.09;;;14.96
19102;BMP280;9683;49.028;12.064;2023-04-24T11:37:33;96424.03;;;14.83
19102;BMP280;9683;49.028;12.064;2023-04-24T11:40:01;96437.72;;;14.66
19102;BMP280;9683;49.028;12.064;2023-04-24T11:42:28;96418.19;;;14.51
19102;BMP280;9683;49.028;12.064;2023-04-24T11:44:55;96412.59;;;14.47
19102;BMP280;9683;49.028;12.064;2023-04-24T11:47:28;96413.91;;;14.55
19102;BMP280;9683;49.028;12.064;2023-04-24T11:49:57;96414.97;;;14.59
19102;BMP280;9683;49.028;12.064;2023-04-24T11:52:24;96409.63;;;14.64
19102;BMP280;9683;49.028;12.064;2023-04-24T11:54:51;96408.25;;;14.72
19102;BMP280;9683;49.028;12.064;2023-04-24T11:57:19;96399.94;;;14.78
19102;BMP280;9683;49.028;12.064;2023-04-24T11:59:46;96417.88;;;14.83
19102;BMP280;9683;49.028;12.064;2023-04-24T12:02:20;96408.22;;;14.92
19102;BMP280;9683;49.028;12.064;2023-04-24T12:04:47;96414.38;;;14.97
19102;BMP280;9683;49.028;12.064;2023-04-24T12:07:15;96400.13;;;15.07
19102;BMP280;9683;49.028;12.064;2023-04-24T12:09:43;96400.66;;;15.14
19102;BMP280;9683;49.028;12.064;2023-04-24T12:12:11;96415.09;;;15.23
19102;BMP280;9683;49.028;12.064;2023-04-24T12:14:48;96422.84;;;15.25
19102;BMP280;9683;49.028;12.064;2023-04-24T12:17:15;96403.59;;;15.23
19102;BMP280;9683;49.028;12.064;2023-04-24T12:19:46;96414.31;;;15.23
19102;BMP280;9683;49.028;12.064;2023-04-24T12:22:14;96403.59;;;15.12
19102;BMP280;9683;49.028;12.064;2023-04-24T12:25:01;96418.88;;;15.17
19102;BMP280;9683;49.028;12.064;2023-04-24T12:27:31;96404.66;;;15.17
19102;BMP280;9683;49.028;12.064;2023-04-24T12:30:01;96384.09;;;15.02
19102;BMP280;9683;49.028;12.064;2023-04-24T12:32:28;96402.00;;;15.11
19102;BMP280;9683;49.028;12.064;2023-04-24T12:34:55;96404.41;;;15.18
19102;BMP280;9683;49.028;12.064;2023-04-24T12:37:24;96403.28;;;15.24
19102;BMP280;9683;49.028;12.064;2023-04-24T12:39:59;96392.03;;;15.27
19102;BMP280;9683;49.028;12.064;2023-04-24T12:42:26;96398.41;;;15.36
19102;BMP280;9683;49.028;12.064;2023-04-24T12:44:56;96391.97;;;15.42
19102;BMP280;9683;49.028;12.064;2023-04-24T12:47:24;96388.19;;;15.48
19102;BMP280;9683;49.028;12.064;2023-04-24T12:49:50;96393.28;;;15.50
19102;BMP280;9683;49.028;12.064;2023-04-24T12:52:17;96378.78;;;15.56
19102;BMP280;9683;49.028;12.064;2023-04-24T12:54:46;96390.56;;;15.65
19102;BMP280;9683;49.028;12.064;2023-04-24T12:57:13;96393.47;;;15.74
19102;BMP280;9683;49.028;12.064;2023-04-24T12:59:40;96404.97;;;15.74
19102;BMP280;9683;49.028;12.064;2023-04-24T13:02:07;96429.47;;;15.57
19102;BMP280;9683;49.028;12.064;2023-04-24T13:04:34;96438.91;;;15.35
19102;BMP280;9683;49.028;12.064;2023-04-24T13:07:00;96480.81;;;15.10
19102;BMP280;9683;49.028;12.064;2023-04-24T13:09:27;96444.38;;;14.99
19102;BMP280;9683;49.028;12.064;2023-04-24T13:11:55;96416.25;;;15.02
19102;BMP280;9683;49.028;12.064;2023-04-24T13:14:22;96432.31;;;14.97
19102;BMP280;9683;49.028;12.064;2023-04-24T13:16:49;96431.28;;;14.88
19102;BMP280;9683;49.028;12.064;2023-04-24T13:19:15;96429.91;;;14.90
19102;BMP280;9683;49.028;12.064;2023-04-24T13:21:42;96432.03;;;14.98
19102;BMP280;9683;49.028;12.064;2023-04-24T13:24:08;96459.66;;;14.94
19102;BMP280;9683;49.028;12.064;2023-04-24T13:26:36;96449.75;;;14.79
19102;BMP280;9683;49.028;12.064;2023-04-24T13:29:04;96441.19;;;14.87
19102;BMP280;9683;49.028;12.064;2023-04-24T13:31:30;96452.19;;;14.65
19102;BMP280;9683;49.028;12.064;2023-04-24T13:33:57;96464.50;;;14.56
19102;BMP280;9683;49.028;12.064;2023-04-24T13:36:23;96454.88;;;14.50
19102;BMP280;9683;49.028;12.064;2023-04-24T13:38:50;96463.72;;;14.51
19102;BMP280;9683;49.028;12.064;2023-04-24T13:41:17;96439.06;;;14.59
19102;BMP280;9683;49.028;12.064;2023-04-24T13:43:43;96440.94;;;14.68
19102;BMP280;9683;49.028;12.064;2023-04-24T13:46:11;96421.09;;;14.80
19102;BMP280;9683;49.028;12.064;2023-04-24T13:48:38;96418.94;;;14.87
19102;BMP280;9683;49.028;12.064;2023-04-24T13:51:05;96423.19;;;15.03
19102;BMP280;9683;49.028;12.064;2023-04-24T13:53:31;96420.25;;;15.04
19102;BMP280;9683;49.028;12.064;2023-04-24T13:56:01;96424.25;;;15.07
19102;BMP280;9683;49.028;12.064;2023-04-24T13:58:27;96413.56;;;14.97
19102;BMP280;9683;49.028;12.064;2023-04-24T14:00:55;96445.44;;;15.03
19102;BMP280;9683;49.028;12.064;2023-04-24T14:03:22;96448.16;;;14.88
19102;BMP280;9683;49.028;12.064;2023-04-24T14:05:49;96443.88;;;14.77
19102;BMP280;9683;49.028;12.064;2023-04-24T14:08:16;96454.84;;;14.71
19102;BMP280;9683;49.028;12.064;2023-04-24T14:10:42;96440.13;;;14.68
19102;BMP280;9683;49.028;12.064;2023-04-24T14:13:09;96463.16;;;14.44